createdAt,value
2022-12-09T00:00:41.081Z,24.81
2022-12-09T00:01:41.071Z,24.84
2022-12-09T00:02:41.166Z,24.85
2022-12-09T00:03:41.298Z,24.83
2022-12-09T00:04:41.298Z,24.83
2022-12-09T00:05:41.155Z,24.83
2022-12-09T00:06:41.052Z,24.84
2022-12-09T00:07:41.197Z,24.84
2022-12-09T00:08:41.164Z,24.83
2022-12-09T00:09:41.255Z,24.85
2022-12-09T00:10:41.008Z,24.83
2022-12-09T00:11:41.141Z,24.81
2022-12-09T00:12:40.990Z,24.83
2022-12-09T00:13:41.158Z,24.81
2022-12-09T00:14:41.067Z,24.83
2022-12-09T00:15:41.041Z,24.81
2022-12-09T00:16:41.096Z,24.80
2022-12-09T00:17:40.929Z,24.80
2022-12-09T00:18:40.899Z,24.80
2022-12-09T00:19:40.877Z,24.80
2022-12-09T00:20:40.841Z,24.80
2022-12-09T00:21:40.946Z,24.84
2022-12-09T00:22:40.861Z,24.80
2022-12-09T00:23:40.873Z,24.78
2022-12-09T00:24:40.941Z,24.80
2022-12-09T00:25:40.824Z,24.80
2022-12-09T00:26:40.890Z,24.77
2022-12-09T00:27:41.015Z,24.78
2022-12-09T00:28:41.020Z,24.78
2022-12-09T00:29:40.977Z,24.78
2022-12-09T00:30:41.066Z,24.76
2022-12-09T00:31:41.151Z,24.76
2022-12-09T00:32:40.906Z,24.78
2022-12-09T00:33:40.879Z,24.78
2022-12-09T00:34:40.714Z,24.80
2022-12-09T00:35:40.720Z,24.78
2022-12-09T00:36:40.979Z,24.77
2022-12-09T00:37:40.868Z,24.78
2022-12-09T00:38:40.880Z,24.78
2022-12-09T00:39:40.674Z,24.77
2022-12-09T00:40:40.637Z,24.77
2022-12-09T00:41:40.627Z,24.77
2022-12-09T00:42:40.883Z,24.78
2022-12-09T00:43:40.803Z,24.76
2022-12-09T00:44:40.589Z,24.73
2022-12-09T00:45:40.752Z,24.77
2022-12-09T00:46:40.691Z,24.76
2022-12-09T00:47:40.799Z,24.78
2022-12-09T00:48:40.701Z,24.78
2022-12-09T00:49:40.627Z,24.77
2022-12-09T00:50:40.706Z,24.76
2022-12-09T00:51:40.535Z,24.77
2022-12-09T00:52:41.135Z,24.77
2022-12-09T00:53:40.667Z,24.73
2022-12-09T00:54:40.723Z,24.77
2022-12-09T00:55:40.544Z,24.76
2022-12-09T00:56:40.445Z,24.78
2022-12-09T00:57:40.595Z,24.77
2022-12-09T00:58:40.443Z,24.73
2022-12-09T00:59:40.503Z,24.71
2022-12-09T01:00:40.466Z,24.73
2022-12-09T01:01:40.619Z,24.73
2022-12-09T01:02:40.640Z,24.76
2022-12-09T01:03:40.573Z,24.76
2022-12-09T01:04:40.491Z,24.78
2022-12-09T01:05:40.836Z,24.76
2022-12-09T01:06:40.351Z,24.78
2022-12-09T01:07:40.712Z,24.77
2022-12-09T01:08:40.457Z,24.77
2022-12-09T01:09:40.365Z,24.73
2022-12-09T01:10:40.427Z,24.76
2022-12-09T01:11:40.523Z,24.76
2022-12-09T01:12:40.312Z,24.73
2022-12-09T01:13:40.355Z,24.73
2022-12-09T01:14:40.601Z,24.73
2022-12-09T01:15:40.482Z,24.71
2022-12-09T01:16:40.424Z,24.71
2022-12-09T01:17:40.679Z,24.71
2022-12-09T01:18:40.316Z,24.71
2022-12-09T01:19:40.348Z,24.69
2022-12-09T01:20:40.417Z,24.71
2022-12-09T01:21:40.287Z,24.76
2022-12-09T01:22:40.204Z,24.68
2022-12-09T01:23:40.250Z,24.71
2022-12-09T01:24:40.167Z,24.71
2022-12-09T01:25:40.156Z,24.71
2022-12-09T01:26:40.133Z,24.71
2022-12-09T01:27:40.223Z,24.71
2022-12-09T01:28:40.254Z,24.73
2022-12-09T01:29:40.386Z,24.71
2022-12-09T01:30:40.162Z,24.71
2022-12-09T01:31:40.282Z,24.67
2022-12-09T01:32:40.207Z,24.71
2022-12-09T01:33:40.121Z,24.69
2022-12-09T01:34:40.384Z,24.67
2022-12-09T01:35:40.071Z,24.69
2022-12-09T01:36:40.236Z,24.68
2022-12-09T01:37:40.250Z,24.67
2022-12-09T01:38:40.215Z,24.69
2022-12-09T01:39:40.013Z,24.65
2022-12-09T01:40:40.232Z,24.67
2022-12-09T01:41:40.549Z,24.68
2022-12-09T01:42:39.966Z,24.65
2022-12-09T01:43:40.325Z,24.69
2022-12-09T01:44:39.930Z,24.68
2022-12-09T01:45:40.137Z,24.68
2022-12-09T01:46:40.130Z,24.68
2022-12-09T01:47:40.303Z,24.64
2022-12-09T01:48:39.909Z,24.68
2022-12-09T01:49:39.905Z,24.65
2022-12-09T01:50:40.055Z,24.65
2022-12-09T01:51:40.237Z,24.67
2022-12-09T01:52:40.099Z,24.67
2022-12-09T01:53:39.898Z,24.64
2022-12-09T01:54:39.824Z,24.65
2022-12-09T01:55:39.890Z,24.65
2022-12-09T01:56:39.837Z,24.65
2022-12-09T01:57:39.862Z,24.68
2022-12-09T01:58:39.783Z,24.65
2022-12-09T01:59:40.134Z,24.65
2022-12-09T02:00:39.940Z,24.67
2022-12-09T02:01:39.884Z,24.64
2022-12-09T02:02:40.017Z,24.65
2022-12-09T02:03:39.943Z,24.67
2022-12-09T02:04:39.821Z,24.65
2022-12-09T02:05:39.760Z,24.64
2022-12-09T02:06:39.811Z,24.65
2022-12-09T02:07:39.923Z,24.67
2022-12-09T02:08:39.736Z,24.64
2022-12-09T02:09:40.094Z,24.67
2022-12-09T02:10:39.704Z,24.67
2022-12-09T02:11:39.663Z,24.67
2022-12-09T02:12:39.621Z,24.64
2022-12-09T02:13:39.681Z,24.64
2022-12-09T02:14:39.611Z,24.67
2022-12-09T02:15:39.647Z,24.65
2022-12-09T02:16:40.049Z,24.65
2022-12-09T02:17:39.964Z,24.65
2022-12-09T02:18:39.769Z,24.62
2022-12-09T02:19:39.926Z,24.65
2022-12-09T02:20:39.812Z,24.61
2022-12-09T02:21:39.977Z,24.65
2022-12-09T02:22:39.668Z,24.68
2022-12-09T02:23:39.958Z,24.65
2022-12-09T02:24:39.926Z,24.68
2022-12-09T02:25:39.563Z,24.65
2022-12-09T02:26:39.744Z,24.65
2022-12-09T02:27:39.486Z,24.65
2022-12-09T02:28:39.441Z,24.64
2022-12-09T02:29:39.538Z,24.62
2022-12-09T02:30:39.572Z,24.67
2022-12-09T02:31:39.929Z,24.65
2022-12-09T02:32:39.548Z,24.65
2022-12-09T02:33:39.730Z,24.64
2022-12-09T02:34:39.526Z,24.64
2022-12-09T02:35:39.547Z,24.64
2022-12-09T02:36:39.402Z,24.64
2022-12-09T02:37:39.609Z,24.64
2022-12-09T02:38:39.419Z,24.61
2022-12-09T02:39:39.411Z,24.62
2022-12-09T02:40:39.317Z,24.61
2022-12-09T02:41:39.358Z,24.62
2022-12-09T02:42:39.314Z,24.61
2022-12-09T02:43:42.222Z,24.61
2022-12-09T02:44:39.479Z,24.61
2022-12-09T02:45:39.429Z,24.61
2022-12-09T02:46:39.611Z,24.65
2022-12-09T02:47:39.518Z,24.61
2022-12-09T02:48:39.561Z,24.62
2022-12-09T02:49:39.530Z,24.64
2022-12-09T02:50:39.238Z,24.62
2022-12-09T02:51:39.249Z,24.64
2022-12-09T02:52:40.114Z,24.61
2022-12-09T02:53:40.169Z,24.60
2022-12-09T02:54:39.236Z,24.61
2022-12-09T02:55:39.243Z,24.61
2022-12-09T02:56:39.184Z,24.60
2022-12-09T02:57:39.433Z,24.58
2022-12-09T02:58:39.294Z,24.61
2022-12-09T02:59:39.499Z,24.58
2022-12-09T03:00:39.452Z,24.60
2022-12-09T03:01:39.363Z,24.57
2022-12-09T03:02:39.548Z,24.60
2022-12-09T03:03:39.443Z,24.57
2022-12-09T03:04:39.299Z,24.61
2022-12-09T03:05:39.438Z,24.60
2022-12-09T03:06:39.112Z,24.60
2022-12-09T03:07:39.194Z,24.60
2022-12-09T03:08:39.150Z,24.60
2022-12-09T03:09:39.279Z,24.61
2022-12-09T03:10:39.342Z,24.61
2022-12-09T03:11:39.120Z,24.60
2022-12-09T03:12:39.082Z,24.60
2022-12-09T03:13:39.289Z,24.60
2022-12-09T03:14:38.989Z,24.58
2022-12-09T03:15:39.010Z,24.61
2022-12-09T03:16:39.224Z,24.61
2022-12-09T03:17:39.169Z,24.62
2022-12-09T03:18:39.075Z,24.61
2022-12-09T03:19:38.924Z,24.61
2022-12-09T03:20:39.256Z,24.62
2022-12-09T03:21:38.875Z,24.61
2022-12-09T03:22:38.911Z,24.62
2022-12-09T03:23:39.226Z,24.60
2022-12-09T03:24:38.998Z,24.62
2022-12-09T03:25:39.065Z,24.61
2022-12-09T03:26:38.968Z,24.58
2022-12-09T03:27:38.977Z,24.60
2022-12-09T03:28:38.936Z,24.58
2022-12-09T03:29:38.837Z,24.60
2022-12-09T03:30:39.155Z,24.60
2022-12-09T03:31:38.897Z,24.61
2022-12-09T03:32:39.305Z,24.62
2022-12-09T03:33:38.938Z,24.61
2022-12-09T03:34:38.797Z,24.61
2022-12-09T03:35:38.735Z,24.62
2022-12-09T03:36:39.069Z,24.62
2022-12-09T03:37:38.818Z,24.60
2022-12-09T03:38:38.713Z,24.61
2022-12-09T03:39:38.750Z,24.64
2022-12-09T03:40:38.803Z,24.62
2022-12-09T03:41:38.680Z,24.64
2022-12-09T03:42:38.857Z,24.64
2022-12-09T03:43:38.864Z,24.64
2022-12-09T03:44:38.683Z,24.62
2022-12-09T03:45:38.827Z,24.62
2022-12-09T03:46:38.745Z,24.62
2022-12-09T03:47:39.001Z,24.62
2022-12-09T03:48:38.965Z,24.61
2022-12-09T03:49:38.937Z,24.61
2022-12-09T03:50:38.775Z,24.64
2022-12-09T03:51:38.809Z,24.62
2022-12-09T03:52:38.590Z,24.62
2022-12-09T03:53:38.653Z,24.61
2022-12-09T03:54:38.706Z,24.62
2022-12-09T03:55:38.503Z,24.61
2022-12-09T03:56:38.534Z,24.61
2022-12-09T03:57:38.614Z,24.61
2022-12-09T03:58:38.738Z,24.60
2022-12-09T03:59:38.496Z,24.60
2022-12-09T04:00:38.523Z,24.57
2022-12-09T04:01:38.561Z,24.60
2022-12-09T04:02:38.671Z,24.58
2022-12-09T04:03:38.822Z,24.60
2022-12-09T04:04:38.514Z,24.58
2022-12-09T04:05:38.438Z,24.58
2022-12-09T04:06:38.521Z,24.58
2022-12-09T04:07:38.769Z,24.60
2022-12-09T04:08:38.959Z,24.60
2022-12-09T04:09:38.686Z,24.60
2022-12-09T04:10:38.380Z,24.57
2022-12-09T04:11:38.553Z,24.55
2022-12-09T04:12:38.425Z,24.58
2022-12-09T04:13:38.320Z,24.58
2022-12-09T04:14:38.513Z,24.55
2022-12-09T04:15:38.323Z,24.57
2022-12-09T04:16:38.750Z,24.53
2022-12-09T04:17:38.576Z,24.53
2022-12-09T04:18:38.452Z,24.55
2022-12-09T04:19:38.337Z,24.55
2022-12-09T04:20:38.304Z,24.55
2022-12-09T04:21:38.644Z,24.53
2022-12-09T04:22:38.274Z,24.55
2022-12-09T04:23:42.985Z,24.53
2022-12-09T04:24:38.336Z,24.55
2022-12-09T04:25:38.357Z,24.53
2022-12-09T04:26:38.249Z,24.53
2022-12-09T04:27:38.299Z,24.53
2022-12-09T04:28:38.209Z,24.55
2022-12-09T04:29:38.360Z,24.52
2022-12-09T04:30:38.394Z,24.55
2022-12-09T04:31:38.243Z,24.57
2022-12-09T04:32:38.200Z,24.52
2022-12-09T04:33:38.167Z,24.55
2022-12-09T04:34:38.385Z,24.52
2022-12-09T04:35:38.118Z,24.53
2022-12-09T04:36:38.137Z,24.53
2022-12-09T04:37:38.133Z,24.53
2022-12-09T04:38:38.065Z,24.53
2022-12-09T04:39:38.055Z,24.53
2022-12-09T04:40:38.070Z,24.53
2022-12-09T04:41:38.261Z,24.53
2022-12-09T04:42:38.447Z,24.57
2022-12-09T04:43:37.995Z,24.55
2022-12-09T04:44:38.059Z,24.55
2022-12-09T04:45:37.992Z,24.53
2022-12-09T04:46:38.128Z,24.53
2022-12-09T04:47:38.323Z,24.57
2022-12-09T04:48:38.059Z,24.55
2022-12-09T04:49:38.270Z,24.57
2022-12-09T04:50:37.964Z,24.57
2022-12-09T04:51:40.155Z,24.55
2022-12-09T04:52:37.998Z,24.53
2022-12-09T04:53:38.208Z,24.55
2022-12-09T04:54:37.940Z,24.57
2022-12-09T04:55:38.356Z,24.55
2022-12-09T04:56:38.239Z,24.55
2022-12-09T04:57:37.862Z,24.60
2022-12-09T04:58:37.857Z,24.57
2022-12-09T04:59:37.919Z,24.57
2022-12-09T05:00:38.273Z,24.53
2022-12-09T05:01:37.940Z,24.60
2022-12-09T05:02:38.213Z,24.60
2022-12-09T05:03:38.035Z,24.60
2022-12-09T05:04:38.075Z,24.61
2022-12-09T05:05:38.190Z,24.60
2022-12-09T05:06:38.015Z,24.60
2022-12-09T05:07:38.074Z,24.61
2022-12-09T05:08:37.981Z,24.60
2022-12-09T05:09:37.940Z,24.60
2022-12-09T05:10:37.789Z,24.60
2022-12-09T05:11:37.722Z,24.60
2022-12-09T05:12:37.774Z,24.62
2022-12-09T05:13:38.138Z,24.62
2022-12-09T05:14:37.918Z,24.61
2022-12-09T05:15:37.826Z,24.60
2022-12-09T05:16:37.996Z,24.61
2022-12-09T05:17:37.889Z,24.61
2022-12-09T05:18:38.149Z,24.61
2022-12-09T05:19:37.853Z,24.60
2022-12-09T05:20:37.972Z,24.60
2022-12-09T05:21:37.939Z,24.60
2022-12-09T05:22:38.012Z,24.58
2022-12-09T05:23:37.598Z,24.62
2022-12-09T05:24:37.683Z,24.61
2022-12-09T05:25:37.880Z,24.61
2022-12-09T05:26:37.889Z,24.60
2022-12-09T05:27:37.867Z,24.62
2022-12-09T05:28:37.809Z,24.62
2022-12-09T05:29:37.533Z,24.61
2022-12-09T05:30:37.763Z,24.64
2022-12-09T05:31:37.993Z,24.62
2022-12-09T05:32:37.882Z,24.62
2022-12-09T05:33:37.845Z,24.64
2022-12-09T05:34:37.648Z,24.68
2022-12-09T05:35:49.013Z,24.65
2022-12-09T05:36:37.632Z,24.64
2022-12-09T05:37:37.445Z,24.67
2022-12-09T05:38:37.620Z,24.67
2022-12-09T05:39:37.458Z,24.65
2022-12-09T05:40:37.598Z,24.67
2022-12-09T05:41:37.435Z,24.68
2022-12-09T05:42:41.311Z,24.67
2022-12-09T05:43:37.750Z,24.68
2022-12-09T05:44:37.420Z,24.68
2022-12-09T05:45:37.371Z,24.68
2022-12-09T05:46:37.510Z,24.69
2022-12-09T05:47:37.520Z,24.65
2022-12-09T05:48:37.608Z,24.65
2022-12-09T05:49:37.458Z,24.62
2022-12-09T05:50:37.761Z,24.62
2022-12-09T05:51:37.337Z,24.64
2022-12-09T05:52:37.721Z,24.61
2022-12-09T05:53:37.352Z,24.62
2022-12-09T05:54:37.541Z,24.64
2022-12-09T05:55:37.379Z,24.64
2022-12-09T05:56:39.468Z,24.62
2022-12-09T05:57:37.355Z,24.58
2022-12-09T05:58:37.451Z,24.61
2022-12-09T05:59:37.208Z,24.57
2022-12-09T06:00:37.597Z,24.60
2022-12-09T06:01:37.180Z,24.60
2022-12-09T06:02:37.497Z,24.58
2022-12-09T06:03:37.804Z,24.58
2022-12-09T06:04:37.587Z,24.57
2022-12-09T06:05:37.449Z,24.53
2022-12-09T06:06:37.847Z,24.58
2022-12-09T06:07:37.640Z,24.60
2022-12-09T06:08:37.816Z,24.58
2022-12-09T06:09:37.312Z,24.58
2022-12-09T06:10:37.291Z,24.58
2022-12-09T06:11:37.114Z,24.53
2022-12-09T06:12:37.747Z,24.50
2022-12-09T06:13:37.186Z,24.49
2022-12-09T06:14:37.122Z,24.43
2022-12-09T06:15:37.377Z,24.40
2022-12-09T06:16:37.493Z,24.35
2022-12-09T06:17:37.303Z,24.31
2022-12-09T06:18:37.197Z,24.28
2022-12-09T06:19:37.534Z,24.25
2022-12-09T06:20:37.112Z,24.18
2022-12-09T06:21:37.019Z,24.16
2022-12-09T06:22:37.075Z,24.10
2022-12-09T06:23:37.336Z,24.05
2022-12-09T06:24:37.107Z,24.02
2022-12-09T06:25:37.058Z,24.03
2022-12-09T06:26:37.011Z,23.95
2022-12-09T06:27:37.281Z,23.97
2022-12-09T06:28:37.211Z,23.98
2022-12-09T06:29:37.230Z,24.00
2022-12-09T06:30:37.227Z,24.05
2022-12-09T06:31:37.243Z,24.02
2022-12-09T06:32:37.494Z,24.03
2022-12-09T06:33:54.174Z,24.05
2022-12-09T06:34:37.203Z,24.08
2022-12-09T06:35:37.228Z,24.09
2022-12-09T06:36:36.916Z,24.10
2022-12-09T06:37:36.892Z,24.12
2022-12-09T06:38:37.056Z,24.16
2022-12-09T06:39:37.024Z,24.16
2022-12-09T06:40:36.931Z,24.21
2022-12-09T06:41:37.236Z,24.20
2022-12-09T06:42:36.980Z,24.18
2022-12-09T06:43:36.951Z,24.22
2022-12-09T06:44:37.142Z,24.22
2022-12-09T06:45:36.673Z,24.25
2022-12-09T06:46:36.906Z,24.27
2022-12-09T06:47:36.754Z,24.28
2022-12-09T06:48:37.225Z,24.30
2022-12-09T06:49:36.963Z,24.31
2022-12-09T06:50:37.036Z,24.32
2022-12-09T06:51:36.963Z,24.34
2022-12-09T06:52:37.028Z,24.34
2022-12-09T06:53:36.756Z,24.39
2022-12-09T06:54:36.618Z,24.42
2022-12-09T06:55:36.764Z,24.43
2022-12-09T06:56:36.770Z,24.43
2022-12-09T06:57:36.907Z,24.46
2022-12-09T06:58:36.742Z,24.49
2022-12-09T06:59:36.540Z,24.52
2022-12-09T07:00:36.902Z,24.53
2022-12-09T07:01:36.700Z,24.53
2022-12-09T07:02:37.330Z,24.57
2022-12-09T07:03:36.691Z,24.60
2022-12-09T07:04:36.777Z,24.61
2022-12-09T07:05:37.111Z,24.61
2022-12-09T07:06:36.672Z,24.64
2022-12-09T07:07:36.816Z,24.67
2022-12-09T07:08:36.972Z,24.69
2022-12-09T07:09:36.979Z,24.71
2022-12-09T07:10:37.022Z,24.71
2022-12-09T07:11:36.800Z,24.71
2022-12-09T07:12:36.584Z,24.71
2022-12-09T07:13:36.850Z,24.73
2022-12-09T07:14:36.909Z,24.73
2022-12-09T07:15:36.536Z,24.73
2022-12-09T07:16:36.794Z,24.78
2022-12-09T07:17:36.990Z,24.77
2022-12-09T07:18:36.688Z,24.77
2022-12-09T07:19:36.567Z,24.77
2022-12-09T07:20:36.741Z,24.77
2022-12-09T07:21:36.624Z,24.77
2022-12-09T07:22:36.455Z,24.78
2022-12-09T07:23:36.485Z,24.81
2022-12-09T07:24:36.450Z,24.81
2022-12-09T07:25:36.678Z,24.83
2022-12-09T07:26:36.472Z,24.81
2022-12-09T07:27:36.894Z,24.84
2022-12-09T07:28:36.439Z,24.83
2022-12-09T07:29:36.589Z,24.83
2022-12-09T07:30:36.283Z,24.81
2022-12-09T07:31:36.603Z,24.83
2022-12-09T07:32:36.524Z,24.84
2022-12-09T07:33:36.583Z,24.84
2022-12-09T07:34:36.480Z,24.85
2022-12-09T07:35:36.342Z,24.84
2022-12-09T07:36:36.706Z,24.88
2022-12-09T07:37:36.305Z,24.85
2022-12-09T07:38:36.478Z,24.88
2022-12-09T07:39:36.327Z,24.87
2022-12-09T07:40:36.448Z,24.88
2022-12-09T07:41:36.262Z,24.87
2022-12-09T07:42:36.105Z,24.90
2022-12-09T07:43:36.135Z,24.87
2022-12-09T07:44:36.512Z,24.90
2022-12-09T07:45:36.578Z,24.91
2022-12-09T07:46:36.425Z,24.88
2022-12-09T07:47:36.671Z,24.88
2022-12-09T07:48:36.227Z,24.91
2022-12-09T07:49:36.582Z,24.90
2022-12-09T07:50:36.388Z,24.91
2022-12-09T07:51:36.334Z,24.93
2022-12-09T07:52:36.361Z,24.96
2022-12-09T07:53:36.061Z,24.99
2022-12-09T07:54:35.956Z,24.98
2022-12-09T07:55:36.151Z,24.99
2022-12-09T07:56:35.902Z,25.00
2022-12-09T07:57:38.480Z,25.02
2022-12-09T07:58:36.389Z,25.03
2022-12-09T07:59:36.080Z,25.05
2022-12-09T08:00:35.947Z,25.08
2022-12-09T08:01:36.350Z,25.08
2022-12-09T08:02:36.058Z,25.10
2022-12-09T08:03:36.040Z,25.10
2022-12-09T08:04:36.475Z,25.10
2022-12-09T08:05:36.652Z,25.13
2022-12-09T08:06:36.225Z,25.18
2022-12-09T08:07:42.203Z,25.18
2022-12-09T08:08:36.034Z,25.18
2022-12-09T08:09:36.113Z,25.23
2022-12-09T08:10:36.238Z,25.20
2022-12-09T08:11:36.024Z,25.25
2022-12-09T08:12:36.253Z,25.23
2022-12-09T08:13:35.934Z,25.25
2022-12-09T08:14:36.067Z,25.25
2022-12-09T08:15:35.869Z,25.28
2022-12-09T08:16:35.874Z,25.27
2022-12-09T08:17:35.935Z,25.30
2022-12-09T08:18:35.834Z,25.27
2022-12-09T08:19:36.226Z,25.27
2022-12-09T08:20:36.243Z,25.27
2022-12-09T08:21:35.951Z,25.25
2022-12-09T08:22:35.825Z,25.27
2022-12-09T08:23:35.745Z,25.24
2022-12-09T08:24:36.044Z,25.25
2022-12-09T08:25:35.976Z,25.27
2022-12-09T08:26:35.949Z,25.28
2022-12-09T08:27:35.893Z,25.27
2022-12-09T08:28:35.764Z,25.30
2022-12-09T08:29:35.825Z,25.32
2022-12-09T08:30:36.065Z,25.33
2022-12-09T08:31:40.542Z,25.33
2022-12-09T08:32:35.761Z,25.36
2022-12-09T08:33:35.832Z,25.36
2022-12-09T08:34:35.749Z,25.35
2022-12-09T08:35:35.592Z,25.35
2022-12-09T08:36:35.624Z,25.39
2022-12-09T08:37:35.756Z,25.38
2022-12-09T08:38:35.769Z,25.39
2022-12-09T08:39:35.594Z,25.38
2022-12-09T08:40:35.560Z,25.40
2022-12-09T08:41:36.288Z,25.39
2022-12-09T08:42:35.936Z,25.42
2022-12-09T08:43:35.639Z,25.45
2022-12-09T08:44:35.566Z,25.43
2022-12-09T08:45:35.658Z,25.43
2022-12-09T08:46:35.883Z,25.46
2022-12-09T08:47:35.549Z,25.47
2022-12-09T08:48:35.661Z,25.46
2022-12-09T08:49:35.690Z,25.47
2022-12-09T08:50:35.490Z,25.46
2022-12-09T08:51:35.865Z,25.47
2022-12-09T08:52:40.275Z,25.46
2022-12-09T08:53:35.770Z,25.45
2022-12-09T08:54:35.779Z,25.45
2022-12-09T08:55:35.502Z,25.43
2022-12-09T08:56:35.472Z,25.43
2022-12-09T08:57:35.988Z,25.45
2022-12-09T08:58:35.566Z,25.45
2022-12-09T08:59:39.987Z,25.47
2022-12-09T09:00:35.705Z,25.45
2022-12-09T09:01:36.129Z,25.46
2022-12-09T09:02:35.660Z,25.46
2022-12-09T09:03:35.525Z,25.47
2022-12-09T09:04:35.879Z,25.50
2022-12-09T09:05:35.739Z,25.47
2022-12-09T09:06:35.448Z,25.51
2022-12-09T09:07:35.558Z,25.50
2022-12-09T09:08:35.209Z,25.51
2022-12-09T09:09:35.562Z,25.50
2022-12-09T09:10:35.224Z,25.51
2022-12-09T09:11:35.469Z,25.47
2022-12-09T09:12:42.138Z,25.50
2022-12-09T09:13:35.395Z,25.51
2022-12-09T09:14:35.119Z,25.50
2022-12-09T09:15:35.271Z,25.51
2022-12-09T09:16:35.482Z,25.52
2022-12-09T09:17:35.152Z,25.51
2022-12-09T09:18:35.870Z,25.52
2022-12-09T09:19:35.330Z,25.52
2022-12-09T09:20:35.080Z,25.50
2022-12-09T09:21:35.742Z,25.51
2022-12-09T09:22:35.310Z,25.50
2022-12-09T09:23:35.369Z,25.51
2022-12-09T09:24:35.182Z,25.51
2022-12-09T09:25:35.172Z,25.51
2022-12-09T09:26:35.043Z,25.51
2022-12-09T09:27:35.350Z,25.55
2022-12-09T09:28:34.964Z,25.57
2022-12-09T09:29:35.088Z,25.57
2022-12-09T09:30:35.446Z,25.57
2022-12-09T09:31:35.141Z,25.60
2022-12-09T09:32:35.427Z,25.58
2022-12-09T09:33:35.014Z,25.61
2022-12-09T09:34:35.284Z,25.64
2022-12-09T09:35:34.918Z,25.62
2022-12-09T09:36:34.894Z,25.61
2022-12-09T09:37:34.995Z,25.62
2022-12-09T09:38:35.305Z,25.58
2022-12-09T09:39:34.905Z,25.58
2022-12-09T09:40:35.353Z,25.61
2022-12-09T09:41:34.998Z,25.61
2022-12-09T09:42:35.144Z,25.61
2022-12-09T09:43:34.974Z,25.60
2022-12-09T09:44:34.812Z,25.58
2022-12-09T09:45:34.845Z,25.61
2022-12-09T09:46:35.069Z,25.60
2022-12-09T09:47:38.462Z,25.58
2022-12-09T09:48:35.073Z,25.61
2022-12-09T09:49:34.840Z,25.61
2022-12-09T09:50:35.229Z,25.62
2022-12-09T09:51:35.079Z,25.62
2022-12-09T09:52:34.979Z,25.64
2022-12-09T09:53:34.905Z,25.64
2022-12-09T09:54:35.035Z,25.61
2022-12-09T09:55:42.452Z,25.61
2022-12-09T09:56:34.682Z,25.61
2022-12-09T09:57:35.278Z,25.61
2022-12-09T09:58:35.072Z,25.65
2022-12-09T09:59:35.022Z,25.61
2022-12-09T10:00:35.208Z,25.62
2022-12-09T10:01:34.846Z,25.61
2022-12-09T10:02:34.728Z,25.62
2022-12-09T10:03:34.979Z,25.61
2022-12-09T10:04:34.731Z,25.64
2022-12-09T10:05:34.991Z,25.67
2022-12-09T10:06:35.233Z,25.69
2022-12-09T10:07:34.814Z,25.70
2022-12-09T10:08:34.757Z,25.67
2022-12-09T10:09:35.259Z,25.70
2022-12-09T10:10:34.732Z,25.72
2022-12-09T10:11:35.161Z,25.69
2022-12-09T10:12:34.998Z,25.67
2022-12-09T10:13:35.343Z,25.67
2022-12-09T10:14:35.152Z,25.70
2022-12-09T10:15:39.968Z,25.69
2022-12-09T10:16:34.748Z,25.70
2022-12-09T10:17:35.078Z,25.69
2022-12-09T10:18:34.616Z,25.72
2022-12-09T10:19:34.544Z,25.72
2022-12-09T10:20:34.954Z,25.72
2022-12-09T10:21:34.789Z,25.72
2022-12-09T10:22:34.596Z,25.73
2022-12-09T10:23:34.593Z,25.73
2022-12-09T10:24:39.293Z,25.75
2022-12-09T10:25:34.676Z,25.75
2022-12-09T10:26:34.570Z,25.73
2022-12-09T10:27:34.360Z,25.75
2022-12-09T10:28:34.582Z,25.73
2022-12-09T10:29:34.403Z,25.73
2022-12-09T10:30:41.843Z,25.76
2022-12-09T10:31:34.452Z,25.79
2022-12-09T10:32:34.558Z,25.76
2022-12-09T10:33:35.331Z,25.79
2022-12-09T10:34:34.739Z,25.77
2022-12-09T10:35:34.700Z,25.76
2022-12-09T10:36:36.504Z,25.80
2022-12-09T10:37:34.557Z,25.79
2022-12-09T10:38:34.242Z,25.80
2022-12-09T10:39:34.249Z,25.80
2022-12-09T10:40:34.916Z,25.79
2022-12-09T10:41:34.343Z,25.80
2022-12-09T10:42:35.364Z,25.79
2022-12-09T10:43:34.472Z,25.79
2022-12-09T10:44:34.169Z,25.82
2022-12-09T10:46:00.180Z,25.80
2022-12-09T10:46:34.414Z,25.83
2022-12-09T10:47:34.255Z,25.82
2022-12-09T10:48:34.409Z,25.80
2022-12-09T10:49:34.216Z,25.83
2022-12-09T10:50:34.206Z,25.83
2022-12-09T10:51:34.086Z,25.85
2022-12-09T10:52:34.304Z,25.83
2022-12-09T10:53:34.661Z,25.87
2022-12-09T10:54:34.299Z,25.85
2022-12-09T10:55:34.436Z,25.90
2022-12-09T10:56:34.277Z,25.88
2022-12-09T10:57:34.058Z,25.90
2022-12-09T10:58:34.075Z,25.90
2022-12-09T10:59:34.078Z,25.91
2022-12-09T11:00:35.160Z,25.90
2022-12-09T11:01:34.063Z,25.92
2022-12-09T11:02:34.116Z,25.94
2022-12-09T11:03:34.402Z,25.94
2022-12-09T11:04:34.457Z,25.91
2022-12-09T11:05:34.144Z,25.91
2022-12-09T11:06:34.227Z,25.95
2022-12-09T11:07:34.121Z,25.92
2022-12-09T11:08:34.471Z,25.91
2022-12-09T11:09:34.676Z,25.94
2022-12-09T11:10:34.359Z,25.92
2022-12-09T11:11:33.990Z,25.95
2022-12-09T11:12:40.409Z,25.91
2022-12-09T11:13:34.443Z,25.91
2022-12-09T11:14:34.193Z,25.88
2022-12-09T11:15:34.051Z,25.87
2022-12-09T11:16:34.560Z,25.88
2022-12-09T11:17:34.050Z,25.88
2022-12-09T11:18:33.941Z,25.85
2022-12-09T11:19:34.142Z,25.87
2022-12-09T11:20:33.939Z,25.87
2022-12-09T11:21:34.261Z,25.88
2022-12-09T11:22:34.346Z,25.87
2022-12-09T11:23:33.893Z,25.90
2022-12-09T11:24:33.976Z,25.90
2022-12-09T11:25:33.856Z,25.94
2022-12-09T11:26:33.814Z,25.94
2022-12-09T11:27:33.943Z,25.92
2022-12-09T11:28:33.763Z,25.91
2022-12-09T11:29:33.782Z,25.94
2022-12-09T11:30:34.077Z,25.98
2022-12-09T11:31:34.248Z,25.97
2022-12-09T11:32:33.958Z,25.99
2022-12-09T11:33:34.144Z,25.97
2022-12-09T11:34:33.751Z,25.98
2022-12-09T11:35:34.088Z,25.98
2022-12-09T11:36:35.352Z,26.02
2022-12-09T11:37:33.570Z,26.01
2022-12-09T11:38:33.531Z,26.05
2022-12-09T11:39:33.558Z,26.06
2022-12-09T11:40:33.514Z,26.05
2022-12-09T11:41:33.491Z,26.01
2022-12-09T11:42:33.531Z,26.01
2022-12-09T11:43:33.499Z,26.05
2022-12-09T11:44:33.449Z,26.06
2022-12-09T11:45:33.481Z,26.02
2022-12-09T11:46:33.646Z,26.02
2022-12-09T11:47:50.454Z,26.02
2022-12-09T11:48:38.686Z,25.99
2022-12-09T11:49:33.458Z,25.99
2022-12-09T11:50:33.675Z,25.99
2022-12-09T11:51:33.508Z,25.98
2022-12-09T11:52:33.405Z,25.99
2022-12-09T11:53:33.338Z,25.97
2022-12-09T11:54:33.371Z,25.94
2022-12-09T11:55:33.430Z,25.91
2022-12-09T11:56:33.368Z,25.90
2022-12-09T11:57:33.332Z,25.90
2022-12-09T11:58:33.334Z,25.87
2022-12-09T11:59:37.782Z,25.85
2022-12-09T12:00:33.322Z,25.83
2022-12-09T12:01:33.348Z,25.83
2022-12-09T12:02:33.272Z,25.82
2022-12-09T12:03:33.305Z,25.76
2022-12-09T12:04:33.274Z,25.77
2022-12-09T12:05:33.253Z,25.75
2022-12-09T12:06:33.220Z,25.73
2022-12-09T12:07:33.479Z,25.70
2022-12-09T12:08:33.382Z,25.69
2022-12-09T12:09:33.298Z,25.72
2022-12-09T12:10:33.204Z,25.64
2022-12-09T12:11:33.147Z,25.62
2022-12-09T12:12:33.187Z,25.62
2022-12-09T12:13:33.132Z,25.57
2022-12-09T12:14:33.147Z,25.57
2022-12-09T12:15:33.176Z,25.57
2022-12-09T12:16:37.793Z,25.52
2022-12-09T12:17:33.158Z,25.50
2022-12-09T12:18:33.141Z,25.46
2022-12-09T12:19:33.140Z,25.43
2022-12-09T12:20:33.093Z,25.38
2022-12-09T12:21:33.165Z,25.36
2022-12-09T12:22:33.202Z,25.35
2022-12-09T12:23:33.042Z,25.33
2022-12-09T12:24:33.059Z,25.32
2022-12-09T12:25:32.988Z,25.25
2022-12-09T12:26:33.131Z,25.23
2022-12-09T12:27:33.018Z,25.25
2022-12-09T12:28:33.204Z,25.21
2022-12-09T12:29:32.975Z,25.25
2022-12-09T12:30:32.987Z,25.25
2022-12-09T12:31:32.946Z,25.28
2022-12-09T12:32:32.991Z,25.25
2022-12-09T12:34:38.943Z,25.30
2022-12-09T12:35:32.912Z,25.27
2022-12-09T12:36:32.924Z,25.27
2022-12-09T12:37:32.877Z,25.27
2022-12-09T12:38:32.947Z,25.33
2022-12-09T12:39:32.869Z,25.33
2022-12-09T12:40:32.854Z,25.33
2022-12-09T12:41:32.843Z,25.35
2022-12-09T12:42:33.016Z,25.35
2022-12-09T12:43:32.800Z,25.35
2022-12-09T12:44:32.846Z,25.36
2022-12-09T12:45:32.886Z,25.38
2022-12-09T12:46:33.667Z,25.39
2022-12-09T12:47:32.778Z,25.42
2022-12-09T12:48:33.005Z,25.40
2022-12-09T12:49:32.780Z,25.42
2022-12-09T12:50:32.790Z,25.43
2022-12-09T12:51:32.703Z,25.43
2022-12-09T12:52:55.115Z,25.45
2022-12-09T12:53:32.689Z,25.46